Accueil
METAR-TAF:

METAR-TAF

Aéroports :

Marham, Angleterre

latitude: 52-39N, longitude: 000-34E, altitude: 23 m

Observation

Le bulletin a été fait il y a 52 minutes, à 18:50 UTC
Vent 4 kt de est
Température 2°C
Humidité 87%
Pression 1018 hPa
Visibilité: 8000 m
Nuages épars à une hauteur de 20000 ft
brume sèche

METAR: EGYM 211850Z 09004KT 8000 HZ SCT200 02/M00 Q1018 BLU NOSIG

Heure: 19:42 (19:42 UTC)

Prévision

Le bulletin a été fait il y a 3 heures et 3 minutes, à 16:39 UTC
Prévision valable du 21 à 18 UTC au 21 à 21 UTC
Vent 8 kt de est
Visibilité 10 km ou plus
Quelques nuages à une hauteur de 2500 ft

TAF: EGYM 211639Z 2118/2121 10008KT 9999 FEW025

Observations et prévisions météorologiques de plus de 4000 aéroports (messages METAR et TAF).

Les stations disponibles sont représentées par des disques jaunes et rouges sur la carte.

Passer la souris dessus pour voir le nom de la station.

Cliquer dessus pour voir les observations et prévisions météorologiques.

Pour changer de carte: cliquez sur les boutons verts avec une croix noire pour zoomer, sur le bouton vert avec un tiret pour effectuer un zoom arrière, ou sur les flèches vertes pour les cartes adjacentes.


METAR-TAF: